BEL4JF LDDU-EBBR
Flight info
| Callsign | BEL4JF |
|---|---|
| Flight time | N/A |
| Altitude | 38000 |
| Route | SOPOK Y863 ROPUV L607 EMGOD DCT MOVUM T109 HAREM Z74 LAMPU DCT NOMBO Y161 MAH DCT VAVOR DCT RADIZ DCT GIMIX DCT SABAD DCT SIPAL L607 |
| Aircraft | A20N/M-DE3FGHIJ1LORVWY/HB1G1 |
Departure
| Time | 2026-05-08 08:56 |
|---|---|
| Airport | Dubrovnik Ruđer Bošković Airport (LDDU) |
Arrival
| Time | N/A |
|---|---|
| Airport | Brussels Airport (EBBR) |
| Time | Latitude | Longitude | Altitude | Speed | Heading |
|---|---|---|---|---|---|
| 2026-05-08 08:52 | 42.55497 | 18.28141 | 493 ft | 0 kts | 28° |
| 2026-05-08 08:54 | 42.55510 | 18.28151 | 492 ft | 12 kts | 28° |
| 2026-05-08 08:55 | 42.55612 | 18.28136 | 492 ft | 16 kts | 307° |
| 2026-05-08 08:55 | 42.55669 | 18.27998 | 493 ft | 26 kts | 298° |
| 2026-05-08 08:55 | 42.55898 | 18.27420 | 504 ft | 107 kts | 298° |
| 2026-05-08 08:55 | 42.56355 | 18.26269 | 526 ft | 170 kts | 297° |
| 2026-05-08 08:56 | 42.57001 | 18.24726 | 884 ft | 193 kts | 297° |
| 2026-05-08 08:56 | 42.57516 | 18.23134 | 1697 ft | 186 kts | 271° |
| 2026-05-08 08:56 | 42.57391 | 18.21475 | 2501 ft | 177 kts | 252° |
| 2026-05-08 08:56 | 42.57280 | 18.19752 | 2998 ft | 198 kts | 277° |
| 2026-05-08 08:57 | 42.57938 | 18.17994 | 3482 ft | 220 kts | 306° |
| 2026-05-08 08:57 | 42.58967 | 18.16341 | 3936 ft | 244 kts | 309° |
| 2026-05-08 08:57 | 42.60108 | 18.14519 | 4530 ft | 262 kts | 306° |
| 2026-05-08 08:57 | 42.61259 | 18.12532 | 5223 ft | 276 kts | 304° |
| 2026-05-08 08:58 | 42.62395 | 18.10457 | 6210 ft | 277 kts | 302° |
| 2026-05-08 08:58 | 42.63504 | 18.08355 | 7250 ft | 277 kts | 301° |
| 2026-05-08 08:58 | 42.64598 | 18.06227 | 8248 ft | 278 kts | 301° |
| 2026-05-08 08:58 | 42.65695 | 18.04069 | 9231 ft | 280 kts | 301° |
| 2026-05-08 08:59 | 42.66789 | 18.01906 | 10180 ft | 282 kts | 301° |
| 2026-05-08 08:59 | 42.67917 | 17.99670 | 10932 ft | 292 kts | 301° |
| 2026-05-08 08:59 | 42.69087 | 17.97340 | 11433 ft | 310 kts | 301° |
| 2026-05-08 08:59 | 42.70333 | 17.94855 | 12001 ft | 325 kts | 301° |
| 2026-05-08 09:00 | 42.71605 | 17.92323 | 12801 ft | 330 kts | 301° |
| 2026-05-08 09:00 | 42.72903 | 17.89741 | 13633 ft | 334 kts | 301° |
| 2026-05-08 09:00 | 42.74206 | 17.87153 | 14459 ft | 337 kts | 302° |
| 2026-05-08 09:00 | 42.75536 | 17.84504 | 15246 ft | 341 kts | 301° |
| 2026-05-08 09:01 | 42.76876 | 17.81832 | 16002 ft | 345 kts | 301° |
| 2026-05-08 09:01 | 42.78226 | 17.79130 | 16768 ft | 348 kts | 301° |
| 2026-05-08 09:01 | 42.79583 | 17.76411 | 17509 ft | 352 kts | 301° |
| 2026-05-08 09:01 | 42.80970 | 17.73628 | 18235 ft | 355 kts | 301° |
| 2026-05-08 09:02 | 42.82344 | 17.70868 | 18947 ft | 359 kts | 301° |
| 2026-05-08 09:02 | 42.83747 | 17.68045 | 19634 ft | 362 kts | 301° |
| 2026-05-08 09:02 | 42.85156 | 17.65210 | 20304 ft | 366 kts | 301° |
| 2026-05-08 09:02 | 42.86580 | 17.62339 | 20969 ft | 369 kts | 301° |
| 2026-05-08 09:03 | 42.88031 | 17.59411 | 21611 ft | 373 kts | 301° |
| 2026-05-08 09:03 | 42.89519 | 17.56529 | 22217 ft | 378 kts | 303° |
| 2026-05-08 09:03 | 42.91188 | 17.53742 | 22818 ft | 384 kts | 308° |
| 2026-05-08 09:03 | 42.93050 | 17.51084 | 23398 ft | 390 kts | 311° |
| 2026-05-08 09:04 | 42.95006 | 17.48512 | 23998 ft | 394 kts | 313° |
| 2026-05-08 09:04 | 42.97006 | 17.45917 | 24578 ft | 397 kts | 313° |
| 2026-05-08 09:04 | 42.99012 | 17.43312 | 25146 ft | 400 kts | 313° |
| 2026-05-08 09:04 | 43.01015 | 17.40707 | 25693 ft | 403 kts | 313° |
| 2026-05-08 09:05 | 43.03043 | 17.38065 | 26231 ft | 406 kts | 313° |
| 2026-05-08 09:05 | 43.05078 | 17.35409 | 26729 ft | 409 kts | 313° |
| 2026-05-08 09:05 | 43.07168 | 17.32677 | 27242 ft | 412 kts | 312° |
| 2026-05-08 09:05 | 43.09215 | 17.29995 | 27739 ft | 414 kts | 312° |
| 2026-05-08 09:06 | 43.11297 | 17.27268 | 28232 ft | 416 kts | 311° |
| 2026-05-08 09:06 | 43.13397 | 17.24514 | 28690 ft | 419 kts | 311° |
| 2026-05-08 09:06 | 43.15493 | 17.21759 | 29160 ft | 421 kts | 311° |
| 2026-05-08 09:06 | 43.17642 | 17.18934 | 29598 ft | 424 kts | 311° |
| 2026-05-08 09:07 | 43.19750 | 17.16162 | 30096 ft | 424 kts | 311° |
| 2026-05-08 09:07 | 43.21867 | 17.13372 | 30722 ft | 421 kts | 311° |
| 2026-05-08 09:07 | 43.23959 | 17.10617 | 31368 ft | 418 kts | 311° |
| 2026-05-08 09:07 | 43.26053 | 17.07853 | 31989 ft | 415 kts | 311° |
| 2026-05-08 09:08 | 43.28107 | 17.05137 | 32582 ft | 412 kts | 311° |
| 2026-05-08 09:08 | 43.30173 | 17.02406 | 33149 ft | 409 kts | 311° |
| 2026-05-08 09:08 | 43.32200 | 16.99719 | 33694 ft | 406 kts | 311° |
| 2026-05-08 09:08 | 43.34228 | 16.97030 | 34215 ft | 404 kts | 311° |
| 2026-05-08 09:09 | 43.36248 | 16.94349 | 34665 ft | 402 kts | 311° |
| 2026-05-08 09:09 | 43.38255 | 16.91683 | 34999 ft | 402 kts | 310° |
| 2026-05-08 09:09 | 43.40255 | 16.89021 | 35319 ft | 401 kts | 310° |
| 2026-05-08 09:09 | 43.42250 | 16.86365 | 35638 ft | 400 kts | 310° |
| 2026-05-08 09:10 | 43.44224 | 16.83732 | 35923 ft | 399 kts | 310° |
| 2026-05-08 09:10 | 43.46208 | 16.81085 | 36021 ft | 400 kts | 310° |
| 2026-05-08 09:10 | 43.50206 | 16.75742 | 36036 ft | 400 kts | 310° |
| 2026-05-08 09:11 | 43.54205 | 16.70393 | 36038 ft | 400 kts | 310° |
| 2026-05-08 09:11 | 43.58201 | 16.65035 | 36031 ft | 400 kts | 310° |
| 2026-05-08 09:12 | 43.62184 | 16.59682 | 36036 ft | 401 kts | 310° |
| 2026-05-08 09:12 | 43.66171 | 16.54314 | 36033 ft | 401 kts | 310° |
| 2026-05-08 09:13 | 43.70166 | 16.48929 | 36030 ft | 401 kts | 310° |
| 2026-05-08 09:13 | 43.74145 | 16.43549 | 36031 ft | 402 kts | 310° |
| 2026-05-08 09:14 | 43.78127 | 16.38156 | 36029 ft | 402 kts | 310° |
| 2026-05-08 09:14 | 43.82121 | 16.32738 | 36021 ft | 402 kts | 309° |
| 2026-05-08 09:15 | 43.86112 | 16.27311 | 36017 ft | 402 kts | 309° |
| 2026-05-08 09:15 | 43.90105 | 16.21873 | 36021 ft | 402 kts | 309° |
| 2026-05-08 09:16 | 43.94088 | 16.16439 | 36019 ft | 403 kts | 309° |
| 2026-05-08 09:16 | 43.98066 | 16.10998 | 36017 ft | 402 kts | 309° |
| 2026-05-08 09:17 | 44.02043 | 16.05550 | 36008 ft | 403 kts | 309° |
| 2026-05-08 09:17 | 44.06036 | 16.00067 | 36000 ft | 403 kts | 309° |
| 2026-05-08 09:18 | 44.06706 | 15.99147 | 35999 ft | 404 kts | 309° |
| 2026-05-08 09:18 | 44.10361 | 15.94093 | 36008 ft | 409 kts | 310° |
| 2026-05-08 09:19 | 44.14451 | 15.88462 | 36029 ft | 416 kts | 310° |
| 2026-05-08 09:19 | 44.18566 | 15.82793 | 36041 ft | 419 kts | 309° |
| 2026-05-08 09:20 | 44.22685 | 15.77099 | 36031 ft | 422 kts | 309° |
| 2026-05-08 09:20 | 44.26875 | 15.71283 | 36015 ft | 426 kts | 309° |
| 2026-05-08 09:21 | 44.31062 | 15.65458 | 36014 ft | 426 kts | 308° |
| 2026-05-08 09:23 | 44.46498 | 15.45871 | 36007 ft | 436 kts | 317° |
| 2026-05-08 09:23 | 44.50931 | 15.40248 | 36007 ft | 427 kts | 308° |
| 2026-05-08 09:24 | 44.55079 | 15.34330 | 36010 ft | 428 kts | 307° |
| 2026-05-08 09:24 | 44.59276 | 15.28349 | 36007 ft | 426 kts | 307° |
| 2026-05-08 09:25 | 44.63429 | 15.22447 | 35995 ft | 427 kts | 307° |
| 2026-05-08 09:25 | 44.67593 | 15.16527 | 35994 ft | 428 kts | 307° |
| 2026-05-08 09:26 | 44.71756 | 15.10601 | 36002 ft | 427 kts | 307° |
| 2026-05-08 09:26 | 44.75924 | 15.04656 | 35996 ft | 428 kts | 307° |
| 2026-05-08 09:27 | 44.80110 | 14.98673 | 35994 ft | 429 kts | 307° |
| 2026-05-08 09:27 | 44.84277 | 14.92704 | 36000 ft | 430 kts | 307° |
| 2026-05-08 09:28 | 44.88456 | 14.86702 | 36003 ft | 429 kts | 307° |
| 2026-05-08 09:28 | 44.92630 | 14.80696 | 35989 ft | 429 kts | 307° |
| 2026-05-08 09:29 | 44.96789 | 14.74699 | 35995 ft | 428 kts | 307° |
| 2026-05-08 09:29 | 45.00944 | 14.68695 | 35990 ft | 429 kts | 307° |
| 2026-05-08 09:30 | 45.05093 | 14.62688 | 35999 ft | 430 kts | 307° |
| 2026-05-08 09:30 | 45.09294 | 14.56591 | 35985 ft | 430 kts | 307° |
| 2026-05-08 09:31 | 45.13464 | 14.50523 | 35980 ft | 429 kts | 307° |
| 2026-05-08 09:31 | 45.17591 | 14.44506 | 35972 ft | 428 kts | 307° |
| 2026-05-08 09:32 | 45.21752 | 14.38424 | 35960 ft | 430 kts | 307° |
| 2026-05-08 09:32 | 45.25909 | 14.32336 | 35963 ft | 428 kts | 306° |
| 2026-05-08 09:33 | 45.30031 | 14.26290 | 35974 ft | 428 kts | 306° |
| 2026-05-08 09:33 | 45.34133 | 14.20253 | 35970 ft | 427 kts | 306° |
| 2026-05-08 09:34 | 45.38269 | 14.14152 | 35971 ft | 428 kts | 306° |
| 2026-05-08 09:34 | 45.42384 | 14.08071 | 35978 ft | 428 kts | 306° |
| 2026-05-08 09:35 | 45.46513 | 14.01955 | 35976 ft | 428 kts | 306° |
| 2026-05-08 09:35 | 45.50625 | 13.95850 | 35968 ft | 430 kts | 307° |
| 2026-05-08 09:36 | 45.54763 | 13.89696 | 35973 ft | 431 kts | 307° |
| 2026-05-08 09:36 | 45.58892 | 13.83538 | 35976 ft | 431 kts | 307° |
| 2026-05-08 09:37 | 45.63014 | 13.77379 | 35982 ft | 430 kts | 307° |
| 2026-05-08 09:37 | 45.67151 | 13.71184 | 35965 ft | 430 kts | 307° |
| 2026-05-08 09:38 | 45.71285 | 13.64978 | 35978 ft | 431 kts | 307° |
| 2026-05-08 09:38 | 45.75396 | 13.58790 | 35962 ft | 431 kts | 307° |
| 2026-05-08 09:39 | 45.79533 | 13.52552 | 35964 ft | 432 kts | 307° |
| 2026-05-08 09:39 | 45.83653 | 13.46323 | 36249 ft | 431 kts | 307° |
| 2026-05-08 09:39 | 45.85726 | 13.43185 | 35822 ft | 430 kts | 307° |
| 2026-05-08 09:40 | 45.87773 | 13.40082 | 36115 ft | 431 kts | 307° |
| 2026-05-08 09:40 | 45.91904 | 13.33808 | 35990 ft | 430 kts | 306° |
| 2026-05-08 09:41 | 45.95911 | 13.27709 | 35955 ft | 430 kts | 306° |
| 2026-05-08 09:41 | 46.00036 | 13.21413 | 35939 ft | 430 kts | 306° |
| 2026-05-08 09:42 | 46.04109 | 13.15185 | 35948 ft | 431 kts | 306° |
| 2026-05-08 09:42 | 46.08228 | 13.08868 | 35945 ft | 432 kts | 306° |
| 2026-05-08 09:43 | 46.12351 | 13.02535 | 35951 ft | 432 kts | 307° |
| 2026-05-08 09:43 | 46.16453 | 12.96220 | 35965 ft | 432 kts | 307° |
| 2026-05-08 09:44 | 46.20551 | 12.89895 | 35964 ft | 431 kts | 307° |
| 2026-05-08 09:44 | 46.24655 | 12.83544 | 35965 ft | 432 kts | 307° |
| 2026-05-08 09:45 | 46.28719 | 12.77243 | 35967 ft | 431 kts | 307° |
| 2026-05-08 09:45 | 46.32801 | 12.70896 | 35982 ft | 431 kts | 307° |
| 2026-05-08 09:46 | 46.36894 | 12.64520 | 35979 ft | 432 kts | 307° |
| 2026-05-08 09:46 | 46.40981 | 12.58134 | 35980 ft | 433 kts | 307° |
| 2026-05-08 09:47 | 46.45048 | 12.51769 | 35990 ft | 432 kts | 307° |
| 2026-05-08 09:47 | 46.49149 | 12.45333 | 35978 ft | 433 kts | 307° |
| 2026-05-08 09:48 | 46.53230 | 12.38913 | 35976 ft | 433 kts | 307° |
| 2026-05-08 09:48 | 46.57309 | 12.32481 | 35978 ft | 433 kts | 307° |
| 2026-05-08 09:49 | 46.61359 | 12.26084 | 35981 ft | 431 kts | 307° |
| 2026-05-08 09:49 | 46.65418 | 12.19652 | 35993 ft | 432 kts | 307° |
| 2026-05-08 09:50 | 46.69480 | 12.13203 | 35999 ft | 432 kts | 307° |
| 2026-05-08 09:50 | 46.73508 | 12.06792 | 36004 ft | 432 kts | 307° |
| 2026-05-08 09:51 | 46.77559 | 12.00325 | 36011 ft | 432 kts | 307° |
| 2026-05-08 09:51 | 46.81608 | 11.93847 | 36012 ft | 432 kts | 307° |
| 2026-05-08 09:52 | 46.85650 | 11.87369 | 36012 ft | 432 kts | 307° |
| 2026-05-08 09:52 | 46.89664 | 11.80916 | 36010 ft | 432 kts | 308° |
| 2026-05-08 09:53 | 46.93706 | 11.74406 | 35990 ft | 432 kts | 308° |
| 2026-05-08 09:53 | 46.97734 | 11.67901 | 35973 ft | 432 kts | 308° |
| 2026-05-08 09:54 | 47.01767 | 11.61370 | 35982 ft | 432 kts | 308° |
| 2026-05-08 09:54 | 47.05791 | 11.54842 | 35996 ft | 432 kts | 308° |
| 2026-05-08 09:55 | 47.09798 | 11.48321 | 36006 ft | 432 kts | 308° |
| 2026-05-08 09:55 | 47.13820 | 11.41765 | 36003 ft | 433 kts | 308° |
| 2026-05-08 09:56 | 47.17878 | 11.35130 | 36003 ft | 433 kts | 308° |
| 2026-05-08 09:56 | 47.21874 | 11.28579 | 35991 ft | 432 kts | 308° |
| 2026-05-08 09:57 | 47.27885 | 11.18700 | 35985 ft | 433 kts | 308° |
| 2026-05-08 09:57 | 47.31888 | 11.12099 | 36000 ft | 432 kts | 308° |
| 2026-05-08 09:58 | 47.35873 | 11.05514 | 36006 ft | 432 kts | 308° |
| 2026-05-08 09:58 | 47.39847 | 10.98928 | 36002 ft | 432 kts | 308° |
| 2026-05-08 09:59 | 47.43844 | 10.92288 | 36005 ft | 432 kts | 308° |
| 2026-05-08 09:59 | 47.47826 | 10.85657 | 36003 ft | 432 kts | 308° |
| 2026-05-08 10:00 | 47.51794 | 10.79032 | 36008 ft | 432 kts | 308° |
| 2026-05-08 10:00 | 47.55780 | 10.72363 | 36012 ft | 432 kts | 308° |
| 2026-05-08 10:01 | 47.59754 | 10.65694 | 36011 ft | 432 kts | 308° |
| 2026-05-08 10:01 | 47.63723 | 10.59018 | 36010 ft | 432 kts | 308° |
| 2026-05-08 10:02 | 47.67698 | 10.52313 | 36007 ft | 433 kts | 309° |
| 2026-05-08 10:02 | 47.71666 | 10.45609 | 36011 ft | 432 kts | 309° |
| 2026-05-08 10:03 | 47.75610 | 10.38928 | 36013 ft | 432 kts | 309° |
| 2026-05-08 10:03 | 47.79546 | 10.32241 | 36013 ft | 432 kts | 308° |
| 2026-05-08 10:04 | 47.83498 | 10.25514 | 36015 ft | 431 kts | 308° |
| 2026-05-08 10:04 | 47.87416 | 10.18825 | 36017 ft | 431 kts | 308° |
| 2026-05-08 10:05 | 47.91363 | 10.12068 | 36021 ft | 432 kts | 308° |
| 2026-05-08 10:05 | 47.95292 | 10.05324 | 36023 ft | 432 kts | 308° |
| 2026-05-08 10:06 | 47.99216 | 9.98574 | 36024 ft | 432 kts | 308° |
| 2026-05-08 10:06 | 48.03157 | 9.91777 | 36020 ft | 432 kts | 309° |
| 2026-05-08 10:07 | 48.07063 | 9.85025 | 36020 ft | 432 kts | 309° |
| 2026-05-08 10:07 | 48.10968 | 9.78258 | 36024 ft | 431 kts | 309° |
| 2026-05-08 10:08 | 48.14896 | 9.71435 | 36022 ft | 430 kts | 308° |
| 2026-05-08 10:08 | 48.18809 | 9.64614 | 36011 ft | 430 kts | 309° |
| 2026-05-08 10:09 | 48.22683 | 9.57847 | 36003 ft | 430 kts | 309° |
| 2026-05-08 10:09 | 48.26592 | 9.51002 | 36002 ft | 430 kts | 309° |
| 2026-05-08 10:10 | 48.30471 | 9.44190 | 36000 ft | 430 kts | 309° |
| 2026-05-08 10:10 | 48.34362 | 9.37341 | 35991 ft | 430 kts | 309° |
| 2026-05-08 10:11 | 48.38222 | 9.30531 | 35981 ft | 429 kts | 308° |
| 2026-05-08 10:11 | 48.42078 | 9.23710 | 35987 ft | 429 kts | 308° |
| 2026-05-08 10:12 | 48.45902 | 9.16928 | 35994 ft | 428 kts | 308° |
| 2026-05-08 10:12 | 48.49768 | 9.10053 | 35989 ft | 428 kts | 308° |
| 2026-05-08 10:13 | 48.53603 | 9.03214 | 35998 ft | 428 kts | 308° |
| 2026-05-08 10:13 | 48.57412 | 8.96407 | 36010 ft | 428 kts | 308° |
| 2026-05-08 10:14 | 48.61255 | 8.89520 | 36013 ft | 428 kts | 308° |
| 2026-05-08 10:14 | 48.65082 | 8.82644 | 36012 ft | 428 kts | 308° |
| 2026-05-08 10:15 | 48.68897 | 8.75771 | 36015 ft | 427 kts | 308° |
| 2026-05-08 10:15 | 48.72701 | 8.68899 | 36011 ft | 428 kts | 308° |